CheckWX is a tool to help pilots better visualize weather data.  It is not intended as a substitute for an official pre-flight weather briefing.

12:20:18 UTC

KSBS METAR
Steamboat Springs / Bob Adams Field Airport
Steamboat Springs, Colorado, USA
Current

45 mins ago

KSBS 221135Z AUTO 07003KT 10SM OVC029 M08/M12 A2966 RMK AO1 T10841125
Observed
Feb-22 @ 11:35 UTC
Wind
  • 070° at 3 KTS
Visibility
10 SM
Flight Rules
MVFR
Cloud Levels
  • Overcast at 2,900' AGL
Temperature
-8°C / 18°F
Dewpoint
-13°C / 9°F
Humidity
68%
Altimeter
29.66" Hg
Pressure
1004.42 hPa
Previous

1 hour ago

KSBS 221115Z AUTO 00000KT 10SM SCT027 BKN033 OVC046 M09/M13 A2966 RMK AO1 T10901126
Observed
Feb-22 @ 11:15 UTC
Visibility
10 SM
Flight Rules
VFR
Cloud Levels
  • Scattered at 2,700' AGL
  • Broken at 3,300' AGL
  • Overcast at 4,600' AGL
Temperature
-9°C / 16°F
Dewpoint
-13°C / 9°F
Humidity
73%
Altimeter
29.66" Hg
Pressure
1004.42 hPa
Previous

1 hour ago

KSBS 221055Z AUTO 20007KT 10SM SCT040 BKN048 OVC060 M09/M14 A2965 RMK AO1 T10941137
Observed
Feb-22 @ 10:55 UTC
Wind
  • 200° at 7 KTS
Visibility
10 SM
Flight Rules
VFR
Cloud Levels
  • Scattered at 4,000' AGL
  • Broken at 4,800' AGL
  • Overcast at 6,000' AGL
Temperature
-9°C / 16°F
Dewpoint
-14°C / 7°F
Humidity
67%
Altimeter
29.65" Hg
Pressure
1004.02 hPa